createdAt,value
2023-03-05T00:01:33.615Z,53.90
2023-03-05T00:04:04.451Z,58.60
2023-03-05T00:06:33.224Z,73.70
2023-03-05T00:09:00.798Z,90.88
2023-03-05T00:11:30.432Z,88.13
2023-03-05T00:13:58.464Z,81.82
2023-03-05T00:16:28.892Z,70.10
2023-03-05T00:18:57.926Z,65.63
2023-03-05T00:21:29.160Z,68.78
2023-03-05T00:23:58.229Z,64.32
2023-03-05T00:26:27.646Z,66.00
2023-03-05T00:28:56.340Z,59.75
2023-03-05T00:31:30.652Z,60.72
2023-03-05T00:34:01.773Z,51.67
2023-03-05T00:36:30.041Z,53.85
2023-03-05T00:38:57.799Z,54.30
2023-03-05T00:41:25.366Z,50.58
2023-03-05T00:43:53.546Z,53.80
2023-03-05T00:46:20.999Z,51.25
2023-03-05T00:48:48.429Z,61.42
2023-03-05T00:51:16.092Z,77.13
2023-03-05T00:53:43.314Z,96.63
2023-03-05T00:56:11.273Z,88.38
2023-03-05T00:58:39.508Z,69.22
2023-03-05T01:01:07.100Z,79.10
2023-03-05T01:03:36.113Z,88.40
2023-03-05T01:06:12.247Z,87.93
2023-03-05T01:08:39.978Z,75.38
2023-03-05T01:11:07.839Z,67.40
2023-03-05T01:13:36.314Z,63.58
2023-03-05T01:16:04.767Z,62.75
2023-03-05T01:18:32.629Z,60.50
2023-03-05T01:20:59.972Z,59.72
2023-03-05T01:23:27.694Z,56.20
2023-03-05T01:25:59.230Z,54.15
2023-03-05T01:28:27.392Z,50.75
2023-03-05T01:30:54.607Z,51.80
2023-03-05T01:33:21.954Z,52.97
2023-03-05T01:35:50.417Z,64.63
2023-03-05T01:38:18.571Z,55.95
2023-03-05T01:40:46.480Z,54.20
2023-03-05T01:43:13.633Z,56.30
2023-03-05T01:46:16.976Z,51.08
2023-03-05T01:48:48.048Z,52.23
2023-03-05T01:51:16.956Z,54.20
2023-03-05T01:53:44.612Z,53.67
2023-03-05T01:56:11.976Z,60.05
2023-03-05T01:58:40.088Z,54.80
2023-03-05T02:01:07.488Z,54.88
2023-03-05T02:03:35.805Z,57.53
2023-03-05T02:06:04.252Z,50.47
2023-03-05T02:08:32.135Z,49.03
2023-03-05T02:11:00.876Z,49.38
2023-03-05T02:13:34.468Z,54.03
2023-03-05T02:16:02.461Z,50.45
2023-03-05T02:18:29.949Z,49.75
2023-03-05T02:20:57.145Z,50.67
2023-03-05T02:23:30.332Z,49.13
2023-03-05T02:25:57.780Z,51.78
2023-03-05T02:28:43.427Z,50.90
2023-03-05T02:31:16.146Z,52.38
2023-03-05T02:33:44.061Z,52.83
2023-03-05T02:36:12.423Z,44.83
2023-03-05T02:38:41.616Z,51.20
2023-03-05T02:41:09.649Z,48.75
2023-03-05T02:43:37.814Z,49.13
2023-03-05T02:46:06.226Z,55.20
2023-03-05T02:48:33.474Z,52.92
2023-03-05T02:51:02.962Z,54.25
2023-03-05T02:53:30.230Z,53.90
2023-03-05T02:55:58.987Z,52.80
2023-03-05T02:58:27.415Z,54.63
2023-03-05T03:00:54.650Z,50.85
2023-03-05T03:03:22.746Z,55.28
2023-03-05T03:05:49.895Z,53.42
2023-03-05T03:08:17.536Z,53.42
2023-03-05T03:10:45.109Z,51.50
2023-03-05T03:13:12.316Z,46.15
2023-03-05T03:15:40.784Z,57.10
2023-03-05T03:18:08.083Z,49.92
2023-03-05T03:20:39.328Z,52.13
2023-03-05T03:23:07.130Z,55.08
2023-03-05T03:25:34.656Z,52.13
2023-03-05T03:28:01.929Z,56.70
2023-03-05T03:30:29.163Z,51.95
2023-03-05T03:32:56.554Z,58.17
2023-03-05T03:35:23.819Z,63.53
2023-03-05T03:37:51.147Z,65.93
2023-03-05T03:40:18.692Z,66.18
2023-03-05T03:42:45.875Z,58.92
2023-03-05T03:45:13.807Z,60.78
2023-03-05T03:47:41.158Z,54.35
2023-03-05T03:50:08.950Z,50.80
2023-03-05T03:52:36.218Z,53.88
2023-03-05T03:55:04.011Z,50.05
2023-03-05T03:57:33.730Z,53.53
2023-03-05T04:00:01.266Z,53.42
2023-03-05T04:02:28.672Z,57.50
2023-03-05T04:04:56.057Z,53.03
2023-03-05T04:07:26.297Z,51.80
2023-03-05T04:09:53.619Z,54.47
2023-03-05T04:12:20.859Z,52.50
2023-03-05T04:14:49.673Z,50.50
2023-03-05T04:17:17.261Z,54.38
2023-03-05T04:19:45.578Z,53.42
2023-03-05T04:22:15.365Z,50.15
2023-03-05T04:24:44.607Z,54.60
2023-03-05T04:27:12.370Z,51.10
2023-03-05T04:29:39.885Z,54.80
2023-03-05T04:32:07.769Z,52.88
2023-03-05T04:34:37.030Z,49.33
2023-03-05T04:37:04.715Z,55.47
2023-03-05T04:39:32.145Z,62.35
2023-03-05T04:41:59.376Z,59.42
2023-03-05T04:44:26.771Z,58.40
2023-03-05T04:46:53.954Z,58.63
2023-03-05T04:49:22.616Z,60.80
2023-03-05T04:51:49.956Z,55.83
2023-03-05T04:54:17.122Z,58.88
2023-03-05T04:56:44.533Z,59.03
2023-03-05T04:59:11.786Z,62.53
2023-03-05T05:01:39.180Z,64.07
2023-03-05T05:04:06.750Z,64.18
2023-03-05T05:06:33.918Z,67.03
2023-03-05T05:09:02.089Z,61.00
2023-03-05T05:11:29.789Z,54.70
2023-03-05T05:13:56.979Z,51.10
2023-03-05T05:16:24.364Z,56.25
2023-03-05T05:18:51.876Z,57.30
2023-03-05T05:21:20.668Z,53.55
2023-03-05T05:23:48.839Z,57.47
2023-03-05T05:26:16.489Z,63.65
2023-03-05T05:28:45.311Z,77.45
2023-03-05T05:31:15.060Z,73.25
2023-03-05T05:33:43.325Z,72.30
2023-03-05T05:36:14.443Z,73.10
2023-03-05T05:38:42.105Z,68.05
2023-03-05T05:41:14.917Z,64.10
2023-03-05T05:43:42.410Z,59.40
2023-03-05T05:46:14.419Z,62.92
2023-03-05T05:48:42.029Z,63.08
2023-03-05T05:51:12.392Z,57.00
2023-03-05T05:53:45.146Z,60.88
2023-03-05T05:56:14.201Z,57.20
2023-03-05T05:58:42.609Z,56.47
2023-03-05T06:01:26.709Z,55.92
2023-03-05T06:03:54.185Z,53.47
2023-03-05T06:06:24.431Z,62.03
2023-03-05T06:08:52.548Z,60.22
2023-03-05T06:11:21.194Z,57.80
2023-03-05T06:13:49.875Z,61.97
2023-03-05T06:16:22.549Z,59.42
2023-03-05T06:18:51.272Z,60.97
2023-03-05T06:21:42.850Z,57.75
2023-03-05T06:24:16.793Z,62.58
2023-03-05T06:27:01.919Z,56.55
2023-03-05T06:29:34.429Z,59.10
2023-03-05T06:32:06.664Z,58.30
2023-03-05T06:37:44.673Z,57.08
2023-03-05T06:40:26.942Z,54.58
2023-03-05T06:42:56.586Z,55.78
2023-03-05T06:45:29.732Z,48.42
2023-03-05T06:48:04.146Z,51.95
2023-03-05T06:50:41.346Z,52.28
2023-03-05T06:53:21.437Z,43.28
2023-03-05T06:56:04.221Z,48.90
2023-03-05T06:58:33.850Z,53.55
2023-03-05T07:01:06.094Z,54.42
2023-03-05T07:03:39.448Z,51.80
2023-03-05T07:06:15.271Z,51.90
2023-03-05T07:09:04.592Z,49.97
2023-03-05T07:11:34.103Z,54.05
2023-03-05T07:14:03.413Z,55.55
2023-03-05T07:16:41.286Z,56.03
2023-03-05T07:19:11.849Z,53.90
2023-03-05T07:21:46.415Z,52.03
2023-03-05T07:24:30.900Z,48.65
2023-03-05T07:27:02.430Z,48.60
2023-03-05T07:29:41.677Z,44.38
2023-03-05T07:32:17.429Z,47.97
2023-03-05T07:34:47.660Z,47.67
2023-03-05T07:37:15.112Z,44.45
2023-03-05T07:39:42.472Z,46.97
2023-03-05T07:42:11.753Z,51.00
2023-03-05T07:44:52.042Z,53.40
2023-03-05T07:47:19.722Z,54.17
2023-03-05T07:49:47.627Z,48.13
2023-03-05T07:52:15.821Z,50.25
2023-03-05T07:54:46.112Z,53.15
2023-03-05T07:57:15.716Z,49.40
2023-03-05T07:59:51.807Z,57.13
2023-03-05T08:02:26.944Z,61.97
2023-03-05T08:05:01.718Z,60.13
2023-03-05T08:07:56.553Z,63.53
2023-03-05T08:10:26.318Z,56.50
2023-03-05T08:13:05.417Z,62.78
2023-03-05T08:15:38.576Z,61.60
2023-03-05T08:18:18.018Z,59.33
2023-03-05T08:20:56.896Z,61.78
2023-03-05T08:23:34.875Z,61.58
2023-03-05T08:26:27.784Z,66.35
2023-03-05T08:29:09.782Z,58.85
2023-03-05T08:32:07.700Z,60.80
2023-03-05T08:34:59.947Z,56.00
2023-03-05T08:37:36.288Z,64.72
2023-03-05T08:40:07.663Z,65.32
2023-03-05T08:42:47.185Z,61.63
2023-03-05T08:45:29.650Z,72.30
2023-03-05T08:48:07.943Z,64.45
2023-03-05T08:50:41.662Z,59.08
2023-03-05T08:55:46.869Z,58.15
2023-03-05T08:58:35.038Z,68.53
2023-03-05T09:04:07.877Z,61.22
2023-03-05T09:06:42.288Z,64.15
2023-03-05T09:09:10.709Z,67.22
2023-03-05T09:11:38.503Z,61.78
2023-03-05T09:14:07.285Z,62.75
2023-03-05T09:16:36.056Z,73.60
2023-03-05T09:19:03.700Z,63.47
2023-03-05T09:22:04.492Z,68.13
2023-03-05T09:25:13.734Z,62.92
2023-03-05T09:27:58.578Z,60.53
2023-03-05T09:30:29.101Z,62.78
2023-03-05T09:33:20.871Z,60.25
2023-03-05T09:35:52.265Z,61.63
2023-03-05T09:38:22.674Z,64.43
2023-03-05T09:41:18.392Z,62.42
2023-03-05T09:44:05.614Z,64.72
2023-03-05T09:47:14.944Z,63.40
2023-03-05T09:49:50.168Z,62.17
2023-03-05T09:52:29.385Z,65.93
2023-03-05T09:55:10.157Z,60.90
2023-03-05T10:08:12.688Z,64.72
2023-03-05T10:11:19.830Z,58.40
2023-03-05T10:13:57.206Z,56.85
2023-03-05T10:17:12.385Z,62.08
2023-03-05T10:20:11.250Z,62.25
2023-03-05T10:22:59.464Z,57.72
2023-03-05T10:25:51.176Z,62.15
2023-03-05T10:28:57.043Z,56.28
2023-03-05T10:31:58.674Z,64.78
2023-03-05T10:34:56.317Z,61.72
2023-03-05T10:37:52.720Z,50.00
2023-03-05T10:40:42.414Z,53.33
2023-03-05T10:43:59.941Z,55.78
2023-03-05T10:46:48.320Z,51.65
2023-03-05T10:49:34.162Z,48.42
2023-03-05T10:52:32.001Z,55.35
2023-03-05T10:59:08.567Z,57.55
2023-03-05T11:01:41.305Z,50.72
2023-03-05T11:05:20.200Z,54.03
2023-03-05T11:07:49.027Z,53.13
2023-03-05T11:10:25.544Z,52.75
2023-03-05T11:12:54.467Z,48.42
2023-03-05T11:15:35.065Z,53.60
2023-03-05T11:18:09.381Z,50.75
2023-03-05T11:20:41.862Z,53.88
2023-03-05T11:23:25.745Z,53.67
2023-03-05T11:26:07.993Z,54.20
2023-03-05T11:28:43.038Z,57.88
2023-03-05T11:34:42.317Z,56.00
2023-03-05T11:37:41.689Z,57.00
2023-03-05T11:41:05.096Z,54.05
2023-03-05T11:46:45.197Z,52.03
2023-03-05T11:50:11.739Z,53.70
2023-03-05T11:52:53.549Z,55.25
2023-03-05T11:55:29.479Z,59.25
2023-03-05T11:58:25.960Z,54.10
2023-03-05T12:00:59.417Z,65.55
2023-03-05T12:03:42.954Z,54.25
2023-03-05T12:06:20.101Z,53.53
2023-03-05T12:08:56.779Z,55.28
2023-03-05T12:11:31.962Z,49.13
2023-03-05T12:14:15.284Z,55.50
2023-03-05T12:16:54.773Z,53.08
2023-03-05T12:19:36.444Z,50.20
2023-03-05T12:22:26.665Z,50.17
2023-03-05T12:25:23.643Z,49.83
2023-03-05T12:27:51.991Z,52.35
2023-03-05T12:30:34.918Z,53.47
2023-03-05T12:33:10.950Z,48.67
2023-03-05T12:35:41.172Z,49.35
2023-03-05T12:38:35.204Z,44.53
2023-03-05T12:41:51.142Z,45.33
2023-03-05T12:44:24.601Z,42.80
2023-03-05T12:47:52.124Z,46.70
2023-03-05T12:50:56.170Z,45.97
2023-03-05T12:53:34.383Z,47.25
2023-03-05T12:56:26.254Z,41.78
2023-03-05T12:59:08.617Z,43.13
2023-03-05T13:02:28.631Z,42.15
2023-03-05T13:05:21.022Z,42.53
2023-03-05T13:10:51.921Z,39.33
2023-03-05T13:13:21.299Z,38.30
2023-03-05T13:15:52.519Z,44.22
2023-03-05T13:18:29.615Z,36.53
2023-03-05T13:21:09.490Z,38.72
2023-03-05T13:23:58.210Z,35.30
2023-03-05T13:26:52.282Z,37.67
2023-03-05T13:29:24.063Z,39.80
2023-03-05T13:31:58.094Z,37.70
2023-03-05T13:34:40.839Z,39.22
2023-03-05T13:37:26.456Z,34.55
2023-03-05T13:42:57.874Z,32.42
2023-03-05T13:48:12.933Z,39.35
2023-03-05T13:50:42.281Z,34.28
2023-03-05T13:53:39.356Z,37.42
2023-03-05T13:56:29.376Z,34.85
2023-03-05T13:59:02.870Z,32.40
2023-03-05T14:01:32.735Z,32.40
2023-03-05T14:04:28.925Z,32.72
2023-03-05T14:07:46.434Z,32.13
2023-03-05T14:10:36.774Z,29.90
2023-03-05T14:13:25.223Z,31.70
2023-03-05T14:16:37.313Z,27.40
2023-03-05T14:19:08.790Z,31.15
2023-03-05T14:25:40.084Z,31.42
2023-03-05T14:28:53.385Z,30.20
2023-03-05T14:32:14.814Z,34.58
2023-03-05T14:34:58.839Z,29.67
2023-03-05T14:37:37.015Z,29.48
2023-03-05T14:40:14.678Z,26.80
2023-03-05T14:42:58.555Z,26.58
2023-03-05T14:45:35.012Z,28.58
2023-03-05T14:48:07.735Z,27.38
2023-03-05T14:51:02.448Z,28.25
2023-03-05T14:53:41.427Z,30.88
2023-03-05T14:56:22.498Z,28.23
2023-03-05T14:58:54.177Z,27.98
2023-03-05T15:01:38.272Z,26.98
2023-03-05T15:04:13.058Z,27.83
2023-03-05T15:06:48.562Z,28.33
2023-03-05T15:09:22.123Z,34.10
2023-03-05T15:12:05.094Z,29.08
2023-03-05T15:14:57.552Z,29.48
2023-03-05T15:18:13.904Z,28.88
2023-03-05T15:20:43.998Z,39.70
2023-03-05T15:23:18.710Z,29.10
2023-03-05T15:25:53.448Z,29.98
2023-03-05T15:28:41.240Z,34.83
2023-03-05T15:31:13.649Z,33.17
2023-03-05T15:33:43.057Z,33.80
2023-03-05T15:36:11.242Z,37.85
2023-03-05T15:38:50.653Z,35.25
2023-03-05T15:41:30.051Z,39.63
2023-03-05T15:44:41.821Z,35.30
2023-03-05T15:47:14.221Z,29.88
2023-03-05T15:50:25.744Z,31.75
2023-03-05T15:52:53.592Z,32.97
2023-03-05T15:55:37.057Z,34.03
2023-03-05T15:58:29.307Z,34.08
2023-03-05T16:01:21.714Z,29.75
2023-03-05T16:04:05.113Z,31.83
2023-03-05T16:06:45.960Z,33.25
2023-03-05T16:09:27.853Z,31.85
2023-03-05T16:11:57.991Z,35.08
2023-03-05T16:14:31.734Z,34.35
2023-03-05T16:17:06.052Z,32.75
2023-03-05T16:23:45.735Z,31.23
2023-03-05T16:26:48.937Z,30.02
2023-03-05T16:29:42.044Z,29.70
2023-03-05T16:32:21.924Z,27.58
2023-03-05T16:35:04.619Z,27.63
2023-03-05T16:38:07.025Z,24.00
2023-03-05T16:41:06.132Z,27.60
2023-03-05T16:43:38.666Z,27.33
2023-03-05T16:46:33.947Z,25.95
2023-03-05T16:49:11.521Z,31.00
2023-03-05T16:51:50.399Z,26.95
2023-03-05T16:54:22.737Z,27.48
2023-03-05T16:56:54.514Z,27.08
2023-03-05T16:59:55.177Z,24.45
2023-03-05T17:02:33.957Z,29.80
2023-03-05T17:05:08.651Z,22.83
2023-03-05T17:07:49.264Z,24.73
2023-03-05T17:10:18.897Z,22.23
2023-03-05T17:12:48.127Z,25.77
2023-03-05T17:15:16.550Z,22.13
2023-03-05T17:17:58.109Z,24.77
2023-03-05T17:20:41.210Z,23.77
2023-03-05T17:23:51.499Z,21.23
2023-03-05T17:26:39.008Z,22.30
2023-03-05T17:29:08.403Z,19.60
2023-03-05T17:31:36.396Z,23.90
2023-03-05T17:34:06.339Z,22.38
2023-03-05T17:36:36.031Z,18.77
2023-03-05T17:39:14.756Z,21.45
2023-03-05T17:41:53.240Z,22.38
2023-03-05T17:44:21.877Z,18.35
2023-03-05T17:46:49.994Z,19.85
2023-03-05T17:49:47.205Z,16.10
2023-03-05T17:52:54.761Z,23.77
2023-03-05T17:55:33.131Z,19.30
2023-03-05T17:58:02.227Z,19.85
2023-03-05T18:00:40.470Z,17.15
2023-03-05T18:03:14.021Z,21.52
2023-03-05T18:06:11.412Z,17.95
2023-03-05T18:08:47.787Z,17.70
2023-03-05T18:11:22.261Z,17.40
2023-03-05T18:13:51.861Z,18.08
2023-03-05T18:16:24.360Z,21.50
2023-03-05T18:18:53.042Z,21.65
2023-03-05T18:21:23.216Z,18.83
2023-03-05T18:23:56.418Z,18.88
2023-03-05T18:31:56.735Z,26.27
2023-03-05T18:34:26.296Z,20.10
2023-03-05T18:36:54.358Z,17.50
2023-03-05T18:39:33.933Z,15.77
2023-03-05T18:42:14.051Z,17.77
2023-03-05T18:44:50.100Z,21.33
2023-03-05T18:47:17.577Z,25.02
2023-03-05T18:50:00.148Z,28.50
2023-03-05T18:52:31.317Z,24.00
2023-03-05T18:55:21.732Z,23.25
2023-03-05T18:57:51.335Z,22.17
2023-03-05T19:00:35.077Z,23.13
2023-03-05T19:03:09.637Z,25.33
2023-03-05T19:06:00.214Z,25.88
2023-03-05T19:08:31.685Z,21.45
2023-03-05T19:11:00.420Z,26.05
2023-03-05T19:13:46.007Z,25.52
2023-03-05T19:16:19.061Z,21.10
2023-03-05T19:19:15.831Z,23.60
2023-03-05T19:21:46.408Z,29.90
2023-03-05T19:24:26.314Z,25.50
2023-03-05T19:27:02.548Z,28.35
2023-03-05T19:29:33.471Z,21.75
2023-03-05T19:32:06.057Z,28.58
2023-03-05T19:34:33.671Z,33.17
2023-03-05T19:37:02.294Z,35.97
2023-03-05T19:39:29.896Z,38.97
2023-03-05T19:41:57.206Z,51.22
2023-03-05T19:44:25.290Z,42.08
2023-03-05T19:46:53.122Z,41.70
2023-03-05T19:49:26.011Z,40.40
2023-03-05T19:51:54.652Z,41.78
2023-03-05T19:54:23.226Z,51.05
2023-03-05T19:56:54.902Z,67.18
2023-03-05T19:59:23.486Z,71.30
2023-03-05T20:01:50.868Z,63.45
2023-03-05T20:04:23.878Z,61.03
2023-03-05T20:07:17.961Z,44.13
2023-03-05T20:09:53.447Z,30.50
2023-03-05T20:12:23.833Z,25.25
2023-03-05T20:14:51.224Z,27.13
2023-03-05T20:17:20.319Z,25.92
2023-03-05T20:19:49.427Z,39.15
2023-03-05T20:22:18.682Z,52.47
2023-03-05T20:24:48.289Z,45.63
2023-03-05T20:27:16.314Z,42.25
2023-03-05T20:29:43.719Z,41.60
2023-03-05T20:32:11.227Z,40.10
2023-03-05T20:34:38.775Z,43.85
2023-03-05T20:37:06.520Z,37.60
2023-03-05T20:39:34.303Z,47.00
2023-03-05T20:42:01.542Z,42.05
2023-03-05T20:44:29.000Z,47.13
2023-03-05T20:47:10.250Z,51.70
2023-03-05T20:49:37.502Z,58.33
2023-03-05T20:52:04.857Z,55.65
2023-03-05T20:54:32.055Z,43.17
2023-03-05T20:56:59.488Z,38.60
2023-03-05T20:59:27.345Z,37.53
2023-03-05T21:01:54.894Z,40.17
2023-03-05T21:04:22.239Z,44.22
2023-03-05T21:06:54.128Z,42.17
2023-03-05T21:09:21.475Z,41.10
2023-03-05T21:11:48.826Z,43.35
2023-03-05T21:14:15.989Z,41.13
2023-03-05T21:16:44.311Z,45.47
2023-03-05T21:19:11.621Z,35.90
2023-03-05T21:21:44.944Z,36.22
2023-03-05T21:26:40.042Z,35.42
2023-03-05T21:29:11.358Z,35.90
2023-03-05T21:31:40.224Z,31.17
2023-03-05T21:34:08.960Z,29.58
2023-03-05T21:36:36.258Z,30.30
2023-03-05T21:39:03.596Z,30.40
2023-03-05T21:41:33.315Z,31.50
2023-03-05T21:44:04.864Z,35.10
2023-03-05T21:46:32.343Z,34.33
2023-03-05T21:48:59.898Z,31.27
2023-03-05T21:51:37.237Z,29.52
2023-03-05T21:54:04.973Z,28.45
2023-03-05T21:56:33.354Z,27.52
2023-03-05T21:59:00.836Z,29.65
2023-03-05T22:01:33.072Z,31.67
2023-03-05T22:04:00.996Z,29.07
2023-03-05T22:06:28.317Z,28.95
2023-03-05T22:08:55.658Z,32.33
2023-03-05T22:11:23.122Z,32.67
2023-03-05T22:13:50.476Z,33.75
2023-03-05T22:16:23.474Z,33.72
2023-03-05T22:18:51.738Z,32.38
2023-03-05T22:21:22.436Z,39.78
2023-03-05T22:23:51.613Z,35.38
2023-03-05T22:26:19.443Z,33.75
2023-03-05T22:28:46.829Z,33.42
2023-03-05T22:31:21.562Z,33.65
2023-03-05T22:33:49.312Z,38.67
2023-03-05T22:36:16.538Z,35.63
2023-03-05T22:38:44.008Z,34.78
2023-03-05T22:41:15.403Z,33.40
2023-03-05T22:43:47.176Z,28.05
2023-03-05T22:46:18.410Z,27.13
2023-03-05T22:48:47.491Z,29.58
2023-03-05T22:51:16.160Z,18.33
2023-03-05T22:53:44.247Z,23.70
2023-03-05T22:56:14.321Z,25.67
2023-03-05T22:58:42.224Z,24.02
2023-03-05T23:01:21.824Z,23.42
2023-03-05T23:03:55.229Z,25.88
2023-03-05T23:06:23.744Z,20.52
2023-03-05T23:08:51.053Z,26.98
2023-03-05T23:11:18.241Z,20.50
2023-03-05T23:13:45.481Z,20.38
2023-03-05T23:16:12.685Z,20.52
2023-03-05T23:18:39.986Z,22.17
2023-03-05T23:21:07.239Z,26.63
2023-03-05T23:23:35.734Z,41.00
2023-03-05T23:26:03.197Z,38.17
2023-03-05T23:28:30.688Z,33.05
2023-03-05T23:30:58.642Z,31.17
2023-03-05T23:33:25.902Z,27.95
2023-03-05T23:35:59.174Z,22.52
2023-03-05T23:38:28.537Z,24.00
2023-03-05T23:41:00.709Z,19.42
2023-03-05T23:43:28.397Z,20.30
2023-03-05T23:45:56.463Z,18.65
2023-03-05T23:48:25.830Z,22.45
2023-03-05T23:50:53.620Z,20.25
2023-03-05T23:53:27.435Z,23.70
2023-03-05T23:55:56.140Z,24.80
2023-03-05T23:58:23.857Z,23.55
